Time;durP1;ratioP1;P1;durP2;ratioP2;P2;SDS_P1;SDS_P2;PMS_P1;PMS_P2;Temp;Humidity;BMP_temperature;BMP_pressure;BME280_temperature;BME280_humidity;BME280_pressure;Samples;Min_cycle;Max_cycle;Signal;HPM_P1;HPM_P2
2024/01/19 00:00:38;;;;;;;3.83;3.17;;;;;;;;;;4891311;29;20538;-85
2024/01/19 00:03:43;;;;;;;8.17;3.10;;;;;;;;;;4903482;29;20543;-84
2024/01/19 00:06:47;;;;;;;5.23;3.07;;;;;;;;;;4882722;29;20617;-85
2024/01/19 00:09:51;;;;;;;4.87;3.17;;;;;;;;;;4905766;29;20546;-84
2024/01/19 00:12:56;;;;;;;5.13;3.47;;;;;;;;;;4906523;29;20538;-83
2024/01/19 00:16:00;;;;;;;3.90;3.00;;;;;;;;;;4905614;29;20645;-84
2024/01/19 00:19:04;;;;;;;3.83;2.57;;;;;;;;;;4906267;29;20542;-83
2024/01/19 00:22:08;;;;;;;7.50;3.00;;;;;;;;;;4894687;29;20594;-83
2024/01/19 00:25:13;;;;;;;4.13;3.07;;;;;;;;;;4894765;29;20621;-83
2024/01/19 00:28:17;;;;;;;5.80;2.90;;;;;;;;;;4894155;29;21079;-84
2024/01/19 00:31:21;;;;;;;6.77;3.23;;;;;;;;;;4905021;29;20550;-84
2024/01/19 00:34:28;;;;;;;4.23;3.20;;;;;;;;;;4893498;29;20562;-84
2024/01/19 00:37:32;;;;;;;6.63;3.30;;;;;;;;;;4905476;29;20542;-84
2024/01/19 00:40:36;;;;;;;5.70;2.93;;;;;;;;;;4893751;29;20889;-84
2024/01/19 00:43:43;;;;;;;4.80;3.00;;;;;;;;;;4893634;29;21095;-84
2024/01/19 00:46:48;;;;;;;5.13;3.10;;;;;;;;;;4893673;29;20625;-83
2024/01/19 00:49:53;;;;;;;4.20;2.87;;;;;;;;;;4882407;29;20905;-84
2024/01/19 00:52:57;;;;;;;8.80;3.37;;;;;;;;;;4882554;29;20542;-84
2024/01/19 00:56:03;;;;;;;4.93;3.17;;;;;;;;;;4892896;29;20613;-84
2024/01/19 00:59:08;;;;;;;4.37;3.10;;;;;;;;;;4892451;29;20546;-84
2024/01/19 01:02:12;;;;;;;6.83;3.50;;;;;;;;;;4881786;29;20976;-85
2024/01/19 01:05:19;;;;;;;6.77;2.93;;;;;;;;;;4881990;29;20621;-84
2024/01/19 01:08:27;;;;;;;5.63;3.27;;;;;;;;;;4892822;29;20546;-83
2024/01/19 01:11:31;;;;;;;5.13;3.27;;;;;;;;;;4904710;29;20546;-85
2024/01/19 01:14:35;;;;;;;5.90;3.13;;;;;;;;;;4892340;29;21146;-85
2024/01/19 01:17:40;;;;;;;7.37;3.60;;;;;;;;;;4892300;29;21063;-83
2024/01/19 01:20:44;;;;;;;5.77;3.10;;;;;;;;;;4871305;29;20546;-84
2024/01/19 01:23:48;;;;;;;10.87;3.73;;;;;;;;;;4881944;29;20952;-84
2024/01/19 01:26:52;;;;;;;6.83;3.77;;;;;;;;;;4891979;29;20613;-85
2024/01/19 01:29:56;;;;;;;6.70;3.83;;;;;;;;;;4881598;29;20546;-85
2024/01/19 01:33:01;;;;;;;4.43;3.47;;;;;;;;;;4892122;29;20542;-83
2024/01/19 01:36:05;;;;;;;7.70;4.10;;;;;;;;;;4891498;29;20617;-84
2024/01/19 01:39:11;;;;;;;9.60;4.30;;;;;;;;;;4881172;29;20542;-84
2024/01/19 01:42:16;;;;;;;5.30;4.53;;;;;;;;;;4892044;29;20618;-84
2024/01/19 01:45:20;;;;;;;8.47;4.13;;;;;;;;;;4892243;29;21194;-84
2024/01/19 01:48:26;;;;;;;6.00;4.13;;;;;;;;;;4892365;29;20538;-84
2024/01/19 01:51:31;;;;;;;7.87;4.73;;;;;;;;;;4891856;29;20542;-83
2024/01/19 01:54:36;;;;;;;7.53;4.17;;;;;;;;;;4891819;29;20538;-84
2024/01/19 01:57:42;;;;;;;10.93;4.67;;;;;;;;;;4891637;29;20543;-84
2024/01/19 02:00:47;;;;;;;5.43;3.87;;;;;;;;;;4891975;29;20547;-84
2024/01/19 02:03:54;;;;;;;5.93;4.20;;;;;;;;;;4891535;29;20940;-83
2024/01/19 02:06:59;;;;;;;6.87;4.23;;;;;;;;;;4902900;29;20554;-84
2024/01/19 02:10:03;;;;;;;11.00;4.30;;;;;;;;;;4891382;29;20555;-84
2024/01/19 02:13:08;;;;;;;7.17;4.70;;;;;;;;;;4891431;29;20551;-83
2024/01/19 02:16:12;;;;;;;6.97;3.90;;;;;;;;;;4891044;29;20653;-84
2024/01/19 02:19:16;;;;;;;9.43;4.17;;;;;;;;;;4902767;29;20543;-84
2024/01/19 02:22:20;;;;;;;6.90;4.07;;;;;;;;;;4891360;29;20597;-83
2024/01/19 02:25:25;;;;;;;7.33;4.33;;;;;;;;;;4891311;29;20622;-83
2024/01/19 02:28:29;;;;;;;7.10;4.23;;;;;;;;;;4901600;29;20881;-83
2024/01/19 02:31:34;;;;;;;7.30;3.80;;;;;;;;;;4880422;29;20546;-83
2024/01/19 02:34:38;;;;;;;10.93;4.67;;;;;;;;;;4902113;29;20538;-83
2024/01/19 02:37:42;;;;;;;7.90;4.47;;;;;;;;;;4880375;29;21103;-84
2024/01/19 02:40:46;;;;;;;7.40;4.17;;;;;;;;;;4902690;29;20546;-84
2024/01/19 02:43:50;;;;;;;5.57;3.67;;;;;;;;;;4891184;29;20609;-84
2024/01/19 02:46:54;;;;;;;6.37;4.20;;;;;;;;;;4902425;29;20629;-84
2024/01/19 02:49:58;;;;;;;9.57;4.47;;;;;;;;;;4891061;29;21084;-83
2024/01/19 02:53:02;;;;;;;8.87;4.73;;;;;;;;;;4879728;29;20542;-84
2024/01/19 02:56:08;;;;;;;7.33;4.77;;;;;;;;;;4890321;29;20618;-83
2024/01/19 02:59:12;;;;;;;10.43;4.93;;;;;;;;;;4890153;29;20542;-84
2024/01/19 03:02:16;;;;;;;8.23;4.80;;;;;;;;;;4890615;29;20551;-83
2024/01/19 03:05:20;;;;;;;7.37;4.63;;;;;;;;;;4879267;29;20633;-84
2024/01/19 03:08:24;;;;;;;10.57;5.03;;;;;;;;;;4890090;29;20543;-83
2024/01/19 03:11:28;;;;;;;8.13;5.33;;;;;;;;;;4890071;29;20547;-83
2024/01/19 03:14:33;;;;;;;12.07;5.03;;;;;;;;;;4890261;29;20539;-84
2024/01/19 03:17:38;;;;;;;6.77;4.40;;;;;;;;;;4890233;29;20542;-83
2024/01/19 03:20:42;;;;;;;5.90;4.40;;;;;;;;;;4890253;29;21092;-83
2024/01/19 03:23:46;;;;;;;10.87;5.63;;;;;;;;;;4901821;29;21147;-85
2024/01/19 03:26:51;;;;;;;7.93;5.43;;;;;;;;;;4890383;29;20618;-83
2024/01/19 03:29:55;;;;;;;14.93;6.17;;;;;;;;;;4879751;29;20543;-84
2024/01/19 03:33:00;;;;;;;11.70;6.00;;;;;;;;;;4890233;29;20538;-83
2024/01/19 03:36:04;;;;;;;13.53;6.67;;;;;;;;;;4889748;29;20625;-84
2024/01/19 03:39:08;;;;;;;11.13;5.87;;;;;;;;;;4890046;29;20547;-84
2024/01/19 03:42:12;;;;;;;13.10;6.50;;;;;;;;;;4901647;29;20909;-84
2024/01/19 03:45:16;;;;;;;9.63;5.77;;;;;;;;;;4889982;29;20629;-83
2024/01/19 03:48:20;;;;;;;10.53;5.90;;;;;;;;;;4890098;29;20558;-83
2024/01/19 03:51:25;;;;;;;10.43;6.00;;;;;;;;;;4890088;29;20546;-84
2024/01/19 03:54:35;;;;;;;9.33;6.17;;;;;;;;;;4879442;29;20534;-84
2024/01/19 03:57:39;;;;;;;12.50;5.73;;;;;;;;;;4890159;29;20543;-84
2024/01/19 04:00:43;;;;;;;8.43;5.90;;;;;;;;;;4879504;29;21071;-83
2024/01/19 04:03:47;;;;;;;8.20;5.37;;;;;;;;;;4890714;29;20933;-84
2024/01/19 04:06:52;;;;;;;8.70;5.67;;;;;;;;;;4880016;29;20609;-85
2024/01/19 04:09:56;;;;;;;7.37;5.43;;;;;;;;;;4879844;29;20551;-85
2024/01/19 04:13:00;;;;;;;9.87;5.73;;;;;;;;;;4879739;29;20546;-84
2024/01/19 04:16:04;;;;;;;12.47;5.57;;;;;;;;;;4890575;29;20652;-84
2024/01/19 04:19:09;;;;;;;11.47;5.80;;;;;;;;;;4879954;29;20563;-84
2024/01/19 04:22:16;;;;;;;9.80;5.60;;;;;;;;;;4879361;29;20542;-83
2024/01/19 04:25:21;;;;;;;8.73;5.83;;;;;;;;;;4890639;29;20618;-83
2024/01/19 04:28:25;;;;;;;10.00;6.10;;;;;;;;;;4889947;29;20546;-87
2024/01/19 04:31:29;;;;;;;11.33;6.07;;;;;;;;;;4879137;29;20550;-87
2024/01/19 04:34:33;;;;;;;8.97;5.37;;;;;;;;;;4879571;29;20850;-85
2024/01/19 04:37:37;;;;;;;11.53;6.00;;;;;;;;;;4878644;29;21079;-87
2024/01/19 04:40:41;;;;;;;11.97;6.07;;;;;;;;;;4879110;29;20550;-87
2024/01/19 04:43:46;;;;;;;8.87;5.80;;;;;;;;;;4889622;29;20598;-87
2024/01/19 04:46:50;;;;;;;8.63;5.50;;;;;;;;;;4889553;29;20613;-87
2024/01/19 04:49:54;;;;;;;10.73;6.10;;;;;;;;;;4879495;29;20546;-87
2024/01/19 04:52:58;;;;;;;10.17;6.17;;;;;;;;;;4893176;29;20546;-87
2024/01/19 04:56:06;;;;;;;9.77;6.10;;;;;;;;;;4892743;29;20629;-87
2024/01/19 04:59:13;;;;;;;9.87;6.30;;;;;;;;;;4882303;29;20546;-87
2024/01/19 05:02:18;;;;;;;9.27;6.23;;;;;;;;;;4882299;29;20546;-87
2024/01/19 05:05:22;;;;;;;9.53;6.47;;;;;;;;;;4893322;29;20610;-86
2024/01/19 05:08:26;;;;;;;16.40;6.83;;;;;;;;;;4883019;29;20542;-87
2024/01/19 05:11:30;;;;;;;12.80;6.87;;;;;;;;;;4882620;29;20558;-87
2024/01/19 05:14:34;;;;;;;12.00;6.60;;;;;;;;;;4892253;29;20554;-85
2024/01/19 05:17:38;;;;;;;10.93;7.53;;;;;;;;;;4881405;29;20554;-87
2024/01/19 05:20:43;;;;;;;10.07;7.50;;;;;;;;;;4871254;29;20554;-87
2024/01/19 05:23:48;;;;;;;15.37;8.13;;;;;;;;;;4881819;29;20593;-87
2024/01/19 05:26:53;;;;;;;12.57;7.40;;;;;;;;;;4903820;29;21205;-87
2024/01/19 05:29:56;;;;;;;14.07;7.80;;;;;;;;;;4904246;29;21099;-87
2024/01/19 05:33:01;;;;;;;13.77;7.73;;;;;;;;;;4881425;29;20546;-87
2024/01/19 05:36:05;;;;;;;15.73;7.53;;;;;;;;;;4881590;29;20626;-86
2024/01/19 05:39:09;;;;;;;16.40;7.70;;;;;;;;;;4892634;29;20547;-87
2024/01/19 05:42:15;;;;;;;14.27;7.67;;;;;;;;;;4892840;29;20546;-87
2024/01/19 05:45:21;;;;;;;12.97;8.23;;;;;;;;;;4903252;29;21000;-87
2024/01/19 05:48:25;;;;;;;13.17;7.97;;;;;;;;;;4891670;29;20546;-87
2024/01/19 05:51:29;;;;;;;18.77;8.63;;;;;;;;;;4892552;29;20550;-86
2024/01/19 05:54:34;;;;;;;13.80;7.37;;;;;;;;;;4902925;29;20538;-87
2024/01/19 05:57:39;;;;;;;13.90;8.30;;;;;;;;;;4893254;29;20570;-87
2024/01/19 06:00:43;;;;;;;14.37;8.10;;;;;;;;;;4891507;29;21114;-87
2024/01/19 06:03:47;;;;;;;14.73;8.40;;;;;;;;;;4881189;29;20609;-87
2024/01/19 06:06:52;;;;;;;13.97;7.77;;;;;;;;;;4880441;29;20621;-86
2024/01/19 06:09:56;;;;;;;15.77;8.30;;;;;;;;;;4880693;29;20542;-87
2024/01/19 06:13:00;;;;;;;13.50;7.90;;;;;;;;;;4903069;29;20550;-86
2024/01/19 06:16:04;;;;;;;13.30;8.20;;;;;;;;;;4890855;29;20645;-87
2024/01/19 06:19:08;;;;;;;12.73;7.57;;;;;;;;;;4890886;29;20911;-87
2024/01/19 06:22:12;;;;;;;16.73;8.27;;;;;;;;;;4880353;29;20542;-86
2024/01/19 06:25:16;;;;;;;14.73;8.47;;;;;;;;;;4890666;29;20657;-87
2024/01/19 06:28:21;;;;;;;14.23;8.53;;;;;;;;;;4890770;29;20909;-87
2024/01/19 06:31:25;;;;;;;13.93;8.73;;;;;;;;;;4879634;29;20928;-87
2024/01/19 06:34:29;;;;;;;17.30;8.40;;;;;;;;;;4890449;29;20543;-87
2024/01/19 06:37:33;;;;;;;16.27;8.10;;;;;;;;;;4879817;29;21097;-87
2024/01/19 06:40:37;;;;;;;13.33;8.23;;;;;;;;;;4880351;29;20550;-87
2024/01/19 06:43:41;;;;;;;16.23;8.60;;;;;;;;;;4890861;29;20598;-87
2024/01/19 06:46:46;;;;;;;16.00;9.07;;;;;;;;;;4892846;29;20621;-87
2024/01/19 06:49:51;;;;;;;13.90;8.70;;;;;;;;;;4879717;29;20534;-87
2024/01/19 06:52:55;;;;;;;15.23;9.30;;;;;;;;;;4879821;29;20543;-87
2024/01/19 06:55:59;;;;;;;16.60;9.07;;;;;;;;;;4901301;29;20621;-87
2024/01/19 06:59:03;;;;;;;14.40;8.97;;;;;;;;;;4889905;29;20554;-86
2024/01/19 07:02:07;;;;;;;13.77;9.13;;;;;;;;;;4879589;29;20547;-87
2024/01/19 07:05:12;;;;;;;16.63;9.97;;;;;;;;;;4889823;29;20657;-87
2024/01/19 07:08:16;;;;;;;27.30;13.53;;;;;;;;;;4890175;29;20547;-88
2024/01/19 07:11:20;;;;;;;27.97;18.37;;;;;;;;;;4900526;29;20558;-88
2024/01/19 07:14:25;;;;;;;24.60;16.90;;;;;;;;;;4878978;29;21177;-86
2024/01/19 07:17:29;;;;;;;16.73;10.87;;;;;;;;;;4890172;29;20550;-87
2024/01/19 07:20:33;;;;;;;16.43;10.50;;;;;;;;;;4889600;29;20570;-89
2024/01/19 07:23:37;;;;;;;17.03;9.97;;;;;;;;;;4878728;29;20565;-88
2024/01/19 07:26:41;;;;;;;17.03;10.03;;;;;;;;;;4878913;29;21202;-89
2024/01/19 07:29:47;;;;;;;19.13;10.20;;;;;;;;;;4879108;29;21142;-89
2024/01/19 07:32:51;;;;;;;16.20;9.87;;;;;;;;;;4878865;29;20951;-89
2024/01/19 07:35:55;;;;;;;17.23;10.33;;;;;;;;;;4878383;29;20609;-89
2024/01/19 07:38:59;;;;;;;28.13;16.50;;;;;;;;;;4888937;29;20561;-89
2024/01/19 07:42:03;;;;;;;31.77;18.37;;;;;;;;;;4889039;29;20570;-89
2024/01/19 07:45:08;;;;;;;21.67;12.93;;;;;;;;;;4889235;29;20680;-90
2024/01/19 07:48:12;;;;;;;18.77;11.43;;;;;;;;;;4888738;29;20569;-90
2024/01/19 07:51:16;;;;;;;18.33;11.40;;;;;;;;;;4879013;29;20570;-90
2024/01/19 07:54:20;;;;;;;17.63;11.20;;;;;;;;;;4868994;29;20561;-89
2024/01/19 07:57:25;;;;;;;16.13;10.67;;;;;;;;;;4868297;29;20569;-89
2024/01/19 08:00:29;;;;;;;18.37;11.27;;;;;;;;;;4878090;29;20550;-88
2024/01/19 08:03:33;;;;;;;18.00;10.43;;;;;;;;;;4888642;29;20557;-88
2024/01/19 08:06:38;;;;;;;17.70;10.27;;;;;;;;;;4877851;29;20636;-88
2024/01/19 08:09:43;;;;;;;22.13;11.13;;;;;;;;;;4890322;29;21185;-86
2024/01/19 08:12:47;;;;;;;19.53;11.97;;;;;;;;;;4890330;29;20574;-86
2024/01/19 08:15:54;;;;;;;31.43;12.00;;;;;;;;;;4888777;29;20645;-91
2024/01/19 08:18:58;;;;;;;19.20;11.33;;;;;;;;;;4877467;29;20566;-88
2024/01/19 08:22:02;;;;;;;17.07;9.63;;;;;;;;;;4900132;29;20546;-91
2024/01/19 08:25:09;;;;;;;15.23;10.30;;;;;;;;;;4888976;29;20665;-87
2024/01/19 08:28:13;;;;;;;16.77;10.63;;;;;;;;;;4881267;29;20562;-88
2024/01/19 08:31:18;;;;;;;15.27;10.13;;;;;;;;;;4892118;29;20542;-87
2024/01/19 08:34:22;;;;;;;17.07;11.03;;;;;;;;;;4892546;29;20553;-88
2024/01/19 08:37:26;;;;;;;16.37;11.17;;;;;;;;;;4881634;29;20557;-87
2024/01/19 08:40:31;;;;;;;20.57;11.80;;;;;;;;;;4881663;29;20900;-87
2024/01/19 08:43:35;;;;;;;17.80;11.63;;;;;;;;;;4891625;29;20912;-88
2024/01/19 08:46:45;;;;;;;19.97;12.03;;;;;;;;;;4891537;29;20628;-88
2024/01/19 08:49:50;;;;;;;16.63;11.40;;;;;;;;;;4903032;29;20577;-88
2024/01/19 08:52:55;;;;;;;17.40;11.70;;;;;;;;;;4880565;29;20569;-88
2024/01/19 08:55:59;;;;;;;16.80;10.67;;;;;;;;;;4890901;29;20633;-88
2024/01/19 08:59:03;;;;;;;21.90;11.57;;;;;;;;;;4891376;29;20565;-88
2024/01/19 09:02:07;;;;;;;22.60;12.27;;;;;;;;;;4882131;29;20565;-88
2024/01/19 09:05:12;;;;;;;19.83;13.13;;;;;;;;;;4919665;29;20687;-86
2024/01/19 09:08:16;;;;;;;41.20;16.27;;;;;;;;;;4910252;29;20561;-88
2024/01/19 09:11:20;;;;;;;77.27;22.03;;;;;;;;;;4922117;29;20561;-88
2024/01/19 09:14:26;;;;;;;19.23;12.53;;;;;;;;;;4888878;29;20864;-88
2024/01/19 09:17:30;;;;;;;23.43;14.27;;;;;;;;;;4899098;29;20641;-88
2024/01/19 09:20:34;;;;;;;19.47;13.73;;;;;;;;;;4889357;29;20561;-88
2024/01/19 09:23:42;;;;;;;17.47;12.10;;;;;;;;;;4888187;29;21122;-87
2024/01/19 09:26:46;;;;;;;21.13;12.17;;;;;;;;;;4909393;29;21323;-87
2024/01/19 09:29:50;;;;;;;19.77;12.30;;;;;;;;;;4898922;29;20565;-88
2024/01/19 09:32:54;;;;;;;17.73;11.30;;;;;;;;;;4898972;29;20570;-87
2024/01/19 09:35:59;;;;;;;19.50;11.90;;;;;;;;;;4890159;29;20630;-87
2024/01/19 09:39:03;;;;;;;19.40;11.87;;;;;;;;;;4869558;29;20542;-87
2024/01/19 09:42:12;;;;;;;20.50;13.73;;;;;;;;;;4880006;29;20546;-87
2024/01/19 09:45:19;;;;;;;17.57;11.63;;;;;;;;;;4890347;29;20657;-87
2024/01/19 09:48:24;;;;;;;17.23;11.10;;;;;;;;;;4891125;29;20558;-84
2024/01/19 09:51:40;;;;;;;18.60;11.13;;;;;;;;;;4890825;29;20562;-88
2024/01/19 09:54:44;;;;;;;15.97;10.10;;;;;;;;;;4890249;29;20550;-87
2024/01/19 09:57:49;;;;;;;21.00;11.10;;;;;;;;;;4891446;29;21135;-87
2024/01/19 10:00:54;;;;;;;19.57;11.63;;;;;;;;;;4890957;29;20543;-83
2024/01/19 10:04:04;;;;;;;18.67;11.67;;;;;;;;;;4896326;29;20597;-83
2024/01/19 10:07:08;;;;;;;17.67;10.77;;;;;;;;;;4899225;29;20534;-82
2024/01/19 10:10:13;;;;;;;15.23;9.73;;;;;;;;;;4921608;29;20577;-83
2024/01/19 10:13:17;;;;;;;18.30;10.90;;;;;;;;;;4909997;29;20546;-83
2024/01/19 10:16:22;;;;;;;15.57;10.93;;;;;;;;;;4909888;29;20649;-87
2024/01/19 10:19:28;;;;;;;23.30;13.33;;;;;;;;;;4897857;29;21079;-88
2024/01/19 10:22:32;;;;;;;24.80;14.70;;;;;;;;;;4920330;29;20546;-86
2024/01/19 10:25:37;;;;;;;19.73;12.97;;;;;;;;;;4897279;29;20656;-87
2024/01/19 10:28:42;;;;;;;38.53;19.97;;;;;;;;;;4897369;29;20919;-89
2024/01/19 10:36:09;;;;;;;23.50;13.17;;;;;;;;;;4919733;29;20628;-88
2024/01/19 10:39:25;;;;;;;17.43;11.60;;;;;;;;;;4897097;29;20561;-88
2024/01/19 10:42:39;;;;;;;16.77;11.13;;;;;;;;;;4897046;29;20569;-88
2024/01/19 10:45:44;;;;;;;19.50;12.83;;;;;;;;;;4880839;29;20748;-88
2024/01/19 10:48:50;;;;;;;27.83;15.13;;;;;;;;;;4895892;29;20904;-87
2024/01/19 10:51:55;;;;;;;39.97;19.17;;;;;;;;;;4907647;29;20561;-87
2024/01/19 10:54:59;;;;;;;38.90;19.70;;;;;;;;;;4907593;29;20633;-88
2024/01/19 10:58:03;;;;;;;44.10;23.13;;;;;;;;;;4907765;29;20893;-87
2024/01/19 11:01:36;;;;;;;23.93;14.97;;;;;;;;;;4896504;29;20557;-87
2024/01/19 11:04:40;;;;;;;22.87;14.90;;;;;;;;;;4887933;29;20605;-87
2024/01/19 11:07:44;;;;;;;17.80;10.93;;;;;;;;;;4877570;29;20558;-87
2024/01/19 11:10:48;;;;;;;14.23;9.37;;;;;;;;;;4888217;29;21115;-87
2024/01/19 11:13:59;;;;;;;12.77;8.70;;;;;;;;;;4866520;29;20554;-87
2024/01/19 11:17:03;;;;;;;15.73;9.30;;;;;;;;;;4887855;29;20977;-87
2024/01/19 11:20:09;;;;;;;15.20;10.63;;;;;;;;;;4888092;29;20562;-88
2024/01/19 11:23:14;;;;;;;15.60;9.90;;;;;;;;;;4867386;29;20567;-90
2024/01/19 11:26:43;;;;;;;20.53;13.00;;;;;;;;;;4888545;29;20666;-86
2024/01/19 11:29:53;;;;;;;16.57;11.67;;;;;;;;;;4884359;29;20597;-89
2024/01/19 11:33:15;;;;;;;17.40;10.93;;;;;;;;;;4906849;29;20569;-89
2024/01/19 11:36:38;;;;;;;16.03;10.47;;;;;;;;;;4885272;29;20220;-90
2024/01/19 11:39:43;;;;;;;15.20;10.63;;;;;;;;;;4906597;29;20662;-89
2024/01/19 11:42:48;;;;;;;16.63;8.87;;;;;;;;;;4896070;29;20211;-90
2024/01/19 11:45:52;;;;;;;13.00;8.40;;;;;;;;;;4906531;29;20228;-89
2024/01/19 11:48:56;;;;;;;15.00;9.20;;;;;;;;;;4896192;29;20553;-90
2024/01/19 11:52:03;;;;;;;11.70;8.47;;;;;;;;;;4896427;29;20531;-90
2024/01/19 11:55:25;;;;;;;14.83;8.53;;;;;;;;;;4885375;29;20624;-89
2024/01/19 11:58:38;;;;;;;14.53;9.53;;;;;;;;;;4885527;29;20550;-89
2024/01/19 12:01:44;;;;;;;13.63;8.83;;;;;;;;;;4888811;29;20561;-89
2024/01/19 12:04:49;;;;;;;13.77;10.43;;;;;;;;;;4899494;29;20561;-89
2024/01/19 12:08:00;;;;;;;13.70;9.73;;;;;;;;;;4888630;29;20568;-89
2024/01/19 12:11:06;;;;;;;15.90;9.17;;;;;;;;;;4899535;29;20550;-89
2024/01/19 12:14:12;;;;;;;16.40;9.77;;;;;;;;;;4888940;29;20900;-88
2024/01/19 12:17:16;;;;;;;14.63;8.47;;;;;;;;;;4910297;29;20201;-88
2024/01/19 12:20:23;;;;;;;104.70;15.67;;;;;;;;;;4899383;29;20553;-88
2024/01/19 12:23:32;;;;;;;34.93;11.40;;;;;;;;;;4899271;29;20572;-89
2024/01/19 12:26:37;;;;;;;128.27;21.83;;;;;;;;;;4899189;29;21023;-89
2024/01/19 12:29:41;;;;;;;19.33;10.37;;;;;;;;;;4888935;29;20576;-90
2024/01/19 12:32:48;;;;;;;21.97;10.17;;;;;;;;;;4899057;29;20565;-90
2024/01/19 12:36:07;;;;;;;25.57;15.20;;;;;;;;;;4910024;29;20620;-91
2024/01/19 12:39:14;;;;;;;20.53;13.33;;;;;;;;;;4900053;29;20185;-89
2024/01/19 12:42:19;;;;;;;20.17;11.57;;;;;;;;;;4910298;29;20553;-89
2024/01/19 12:45:24;;;;;;;15.43;11.20;;;;;;;;;;4889036;29;20661;-90
2024/01/19 12:48:28;;;;;;;14.63;8.33;;;;;;;;;;4899653;29;20176;-90
2024/01/19 12:51:33;;;;;;;11.43;8.07;;;;;;;;;;4899648;29;20188;-90
2024/01/19 12:54:44;;;;;;;15.03;9.10;;;;;;;;;;4898665;29;20185;-90
2024/01/19 12:57:49;;;;;;;14.57;9.20;;;;;;;;;;4898948;29;20516;-90
2024/01/19 13:01:02;;;;;;;12.23;8.13;;;;;;;;;;4887899;29;20543;-90
2024/01/19 13:04:07;;;;;;;13.53;8.03;;;;;;;;;;4888232;29;20553;-90
2024/01/19 13:07:21;;;;;;;13.30;7.40;;;;;;;;;;4887911;29;20613;-90
2024/01/19 13:10:25;;;;;;;15.13;8.87;;;;;;;;;;4888038;29;20569;-88
2024/01/19 13:13:29;;;;;;;13.10;7.83;;;;;;;;;;4899001;29;20561;-88
2024/01/19 13:16:51;;;;;;;13.63;8.07;;;;;;;;;;4899367;29;20983;-92
2024/01/19 13:19:55;;;;;;;12.37;8.10;;;;;;;;;;4909531;29;20565;-91
2024/01/19 13:23:00;;;;;;;13.47;8.57;;;;;;;;;;4898650;29;21126;-91
2024/01/19 13:26:13;;;;;;;11.57;8.50;;;;;;;;;;4908929;29;20648;-91
2024/01/19 13:29:18;;;;;;;11.70;7.13;;;;;;;;;;4898423;29;20900;-91
2024/01/19 13:32:23;;;;;;;11.80;7.67;;;;;;;;;;4888282;29;20560;-91
2024/01/19 13:35:28;;;;;;;12.67;7.77;;;;;;;;;;4920598;29;20624;-91
2024/01/19 13:38:32;;;;;;;11.53;7.73;;;;;;;;;;4898104;29;20561;-90
2024/01/19 13:41:37;;;;;;;13.60;8.07;;;;;;;;;;4887146;29;20557;-91
2024/01/19 13:44:41;;;;;;;10.93;7.30;;;;;;;;;;4887312;29;20553;-91
2024/01/19 13:47:45;;;;;;;15.77;11.90;;;;;;;;;;4908767;29;20550;-91
2024/01/19 13:50:49;;;;;;;15.60;9.07;;;;;;;;;;4897689;29;20907;-89
2024/01/19 13:53:54;;;;;;;14.90;9.10;;;;;;;;;;4898241;29;20558;-89
2024/01/19 13:56:58;;;;;;;14.10;8.40;;;;;;;;;;4897953;29;20959;-88
2024/01/19 14:00:05;;;;;;;12.87;8.47;;;;;;;;;;4908787;29;20562;-90
2024/01/19 14:03:13;;;;;;;19.93;11.40;;;;;;;;;;4908480;29;21102;-90
2024/01/19 14:06:17;;;;;;;14.93;9.90;;;;;;;;;;4897581;29;20653;-88
2024/01/19 14:09:49;;;;;;;28.00;16.27;;;;;;;;;;4909816;29;21102;-90
2024/01/19 14:13:18;;;;;;;67.00;36.13;;;;;;;;;;4910682;29;20877;-88
2024/01/19 14:16:23;;;;;;;24.00;14.70;;;;;;;;;;4887251;29;20640;-89
2024/01/19 14:19:27;;;;;;;15.27;9.43;;;;;;;;;;4901298;29;20538;-88
2024/01/19 14:22:31;;;;;;;12.67;7.50;;;;;;;;;;4905205;29;21110;-85
2024/01/19 14:25:35;;;;;;;13.90;8.13;;;;;;;;;;4907842;29;20699;-89
2024/01/19 14:28:40;;;;;;;11.67;7.73;;;;;;;;;;4888754;29;20546;-89
2024/01/19 14:31:45;;;;;;;11.23;6.73;;;;;;;;;;4898593;29;20545;-89
2024/01/19 14:35:45;;;;;;;10.77;6.03;;;;;;;;;;4898389;29;20557;-89
2024/01/19 14:38:51;;;;;;;8.30;5.73;;;;;;;;;;4888797;29;20562;-91
2024/01/19 14:41:55;;;;;;;8.47;5.83;;;;;;;;;;4886254;29;20561;-87
2024/01/19 14:44:59;;;;;;;8.70;5.63;;;;;;;;;;4907364;29;20617;-87
2024/01/19 14:48:04;;;;;;;14.27;8.93;;;;;;;;;;4896834;29;20554;-88
2024/01/19 14:51:10;;;;;;;13.53;8.47;;;;;;;;;;4899375;29;21078;-90
2024/01/19 14:54:16;;;;;;;11.47;7.53;;;;;;;;;;4912775;29;20557;-90
2024/01/19 14:57:22;;;;;;;9.43;6.37;;;;;;;;;;4897837;29;21083;-90
2024/01/19 15:00:26;;;;;;;9.07;5.90;;;;;;;;;;4897155;29;20553;-91
2024/01/19 15:03:31;;;;;;;10.50;6.03;;;;;;;;;;4896265;29;20558;-90
2024/01/19 15:06:35;;;;;;;7.50;4.83;;;;;;;;;;4895790;29;20649;-90
2024/01/19 15:09:39;;;;;;;12.90;5.37;;;;;;;;;;4896331;29;21110;-90
2024/01/19 15:12:43;;;;;;;10.43;6.87;;;;;;;;;;4885884;29;20566;-91
2024/01/19 15:15:47;;;;;;;9.77;6.07;;;;;;;;;;4896349;29;21015;-90
2024/01/19 15:18:52;;;;;;;11.93;6.83;;;;;;;;;;4886879;29;20562;-92
2024/01/19 15:21:56;;;;;;;9.67;6.90;;;;;;;;;;4886177;29;20565;-88
2024/01/19 15:25:00;;;;;;;14.73;11.03;;;;;;;;;;4906672;29;20624;-87
2024/01/19 15:28:05;;;;;;;19.30;11.27;;;;;;;;;;4908983;29;20652;-86
2024/01/19 15:31:17;;;;;;;18.20;10.80;;;;;;;;;;4880756;29;20572;-89
2024/01/19 15:34:21;;;;;;;11.03;6.87;;;;;;;;;;4910245;29;20556;-90
2024/01/19 15:37:26;;;;;;;8.40;6.50;;;;;;;;;;4919764;29;20573;-87
2024/01/19 15:40:31;;;;;;;8.23;5.40;;;;;;;;;;4890303;29;20561;-87
2024/01/19 15:43:36;;;;;;;9.13;6.63;;;;;;;;;;4901316;29;20562;-88
2024/01/19 15:46:40;;;;;;;11.63;6.83;;;;;;;;;;4900297;29;20641;-87
2024/01/19 15:49:45;;;;;;;9.93;7.03;;;;;;;;;;4891360;29;20560;-88
2024/01/19 15:52:54;;;;;;;13.60;8.70;;;;;;;;;;4913258;29;20561;-88
2024/01/19 15:55:58;;;;;;;12.60;7.87;;;;;;;;;;4890578;29;20620;-88
2024/01/19 15:59:03;;;;;;;13.60;9.17;;;;;;;;;;4900814;29;20561;-88
2024/01/19 16:02:07;;;;;;;18.53;11.37;;;;;;;;;;4911451;29;20557;-86
2024/01/19 16:05:14;;;;;;;13.87;9.50;;;;;;;;;;4900396;29;20631;-89
2024/01/19 16:08:18;;;;;;;23.10;14.83;;;;;;;;;;4912123;29;20609;-87
2024/01/19 16:11:22;;;;;;;36.70;21.50;;;;;;;;;;4903445;29;20564;-87
2024/01/19 16:14:27;;;;;;;17.47;11.10;;;;;;;;;;4904192;29;20624;-87
2024/01/19 16:17:37;;;;;;;10.33;6.63;;;;;;;;;;4904415;29;20604;-91
2024/01/19 16:20:52;;;;;;;12.57;6.07;;;;;;;;;;4915229;29;20565;-88
2024/01/19 16:23:56;;;;;;;9.97;6.27;;;;;;;;;;4916239;29;20553;-88
2024/01/19 16:27:01;;;;;;;10.43;6.37;;;;;;;;;;4905408;29;20657;-88
2024/01/19 16:30:06;;;;;;;8.27;5.83;;;;;;;;;;4904608;29;20562;-89
2024/01/19 16:33:13;;;;;;;14.67;8.97;;;;;;;;;;4915840;29;20554;-84
2024/01/19 16:36:18;;;;;;;11.50;7.53;;;;;;;;;;4915058;29;20613;-85
2024/01/19 16:39:23;;;;;;;10.27;6.73;;;;;;;;;;4904535;29;20558;-84
2024/01/19 16:42:28;;;;;;;41.50;17.97;;;;;;;;;;4926777;29;21138;-85
2024/01/19 16:45:32;;;;;;;37.47;16.27;;;;;;;;;;4914634;29;20631;-85
2024/01/19 16:48:36;;;;;;;58.43;26.43;;;;;;;;;;4907258;29;20557;-86
2024/01/19 16:51:41;;;;;;;70.53;30.03;;;;;;;;;;4918020;29;20564;-87
2024/01/19 16:54:46;;;;;;;41.63;19.67;;;;;;;;;;4917588;29;20927;-85
2024/01/19 16:57:50;;;;;;;54.40;23.83;;;;;;;;;;4906353;29;20564;-85
2024/01/19 17:00:55;;;;;;;46.53;19.87;;;;;;;;;;4917210;29;21129;-85
2024/01/19 17:03:59;;;;;;;32.97;16.33;;;;;;;;;;4906398;29;20579;-85
2024/01/19 17:07:04;;;;;;;71.03;29.90;;;;;;;;;;4916760;29;20608;-85
2024/01/19 17:10:09;;;;;;;89.60;35.40;;;;;;;;;;4916956;29;20560;-86
2024/01/19 17:13:13;;;;;;;33.20;16.20;;;;;;;;;;4917045;29;20556;-85
2024/01/19 17:16:17;;;;;;;20.47;11.90;;;;;;;;;;4916799;29;21009;-86
2024/01/19 17:19:22;;;;;;;15.43;9.40;;;;;;;;;;4905599;29;20564;-86
2024/01/19 17:22:27;;;;;;;18.07;10.77;;;;;;;;;;4916440;29;20566;-85
2024/01/19 17:25:32;;;;;;;16.30;9.77;;;;;;;;;;4915549;29;20627;-85
2024/01/19 17:28:36;;;;;;;16.53;8.93;;;;;;;;;;4904848;29;20600;-85
2024/01/19 17:31:41;;;;;;;14.60;8.40;;;;;;;;;;4926552;29;20569;-86
2024/01/19 17:34:45;;;;;;;15.67;9.43;;;;;;;;;;4926981;29;21114;-85
2024/01/19 17:37:52;;;;;;;15.67;9.90;;;;;;;;;;4914779;29;20553;-84
2024/01/19 17:40:56;;;;;;;15.50;9.13;;;;;;;;;;4903484;29;20550;-85
2024/01/19 17:44:00;;;;;;;15.93;9.53;;;;;;;;;;4893497;29;20561;-85
2024/01/19 17:47:04;;;;;;;17.10;10.60;;;;;;;;;;4926181;29;20601;-85
2024/01/19 17:50:09;;;;;;;18.00;10.97;;;;;;;;;;4925974;29;20577;-86
2024/01/19 17:53:14;;;;;;;16.53;10.33;;;;;;;;;;4903168;29;20919;-85
2024/01/19 17:56:18;;;;;;;17.97;10.93;;;;;;;;;;4913447;29;20636;-85
2024/01/19 17:59:24;;;;;;;18.87;9.70;;;;;;;;;;4914084;29;20560;-86
2024/01/19 18:02:28;;;;;;;14.50;8.77;;;;;;;;;;4891563;29;20918;-84
2024/01/19 18:05:33;;;;;;;10.93;8.33;;;;;;;;;;4912472;29;21158;-86
2024/01/19 18:08:37;;;;;;;16.47;9.87;;;;;;;;;;4912046;29;20597;-86
2024/01/19 18:11:44;;;;;;;12.77;8.23;;;;;;;;;;4912308;29;20553;-86
2024/01/19 18:14:48;;;;;;;12.13;7.30;;;;;;;;;;4911883;29;20561;-85
2024/01/19 18:17:52;;;;;;;15.17;7.47;;;;;;;;;;4911972;29;20669;-85